createdAt,value
2022-10-14T00:01:06.446Z,90.20
2022-10-14T00:03:34.825Z,90.10
2022-10-14T00:06:05.552Z,90.10
2022-10-14T00:08:32.396Z,90.20
2022-10-14T00:11:06.273Z,90.20
2022-10-14T00:13:34.058Z,90.30
2022-10-14T00:16:01.515Z,90.30
2022-10-14T00:18:28.695Z,90.30
2022-10-14T00:21:00.782Z,90.40
2022-10-14T00:23:29.063Z,90.50
2022-10-14T00:25:55.894Z,90.90
2022-10-14T00:28:26.990Z,90.70
2022-10-14T00:30:55.499Z,90.70
2022-10-14T00:33:22.791Z,90.60
2022-10-14T00:36:01.073Z,90.60
2022-10-14T00:38:34.046Z,90.60
2022-10-14T00:41:01.216Z,90.70
2022-10-14T00:43:30.048Z,90.70
2022-10-14T00:45:56.892Z,90.70
2022-10-14T00:48:26.410Z,90.90
2022-10-14T00:50:57.255Z,91.10
2022-10-14T00:53:24.157Z,91.10
2022-10-14T00:55:52.744Z,91.10
2022-10-14T00:58:23.632Z,91.10
2022-10-14T01:00:50.667Z,91.10
2022-10-14T01:03:20.752Z,91.20
2022-10-14T01:06:32.022Z,91.20
2022-10-14T01:09:10.168Z,91.20
2022-10-14T01:12:23.409Z,91.20
2022-10-14T01:15:05.586Z,91.20
2022-10-14T01:17:50.777Z,91.30
2022-10-14T01:20:34.683Z,91.40
2022-10-14T01:23:07.698Z,91.40
2022-10-14T01:25:55.396Z,91.40
2022-10-14T01:28:54.828Z,91.40
2022-10-14T01:31:28.245Z,91.30
2022-10-14T01:33:58.743Z,91.30
2022-10-14T01:36:36.440Z,91.30
2022-10-14T01:39:10.864Z,91.40
2022-10-14T01:41:47.550Z,91.40
2022-10-14T01:44:17.250Z,91.30
2022-10-14T01:46:50.104Z,91.30
2022-10-14T01:49:39.906Z,91.30
2022-10-14T01:52:22.635Z,91.40
2022-10-14T01:54:53.280Z,91.40
2022-10-14T01:57:24.265Z,91.40
2022-10-14T01:59:52.872Z,91.40
2022-10-14T02:02:20.409Z,91.40
2022-10-14T02:04:47.612Z,91.40
2022-10-14T02:07:24.053Z,91.40
2022-10-14T02:10:06.665Z,91.50
2022-10-14T02:13:12.559Z,91.40
2022-10-14T02:15:57.934Z,91.40
2022-10-14T02:19:05.347Z,91.50
2022-10-14T02:21:39.217Z,91.50
2022-10-14T02:24:12.806Z,91.40
2022-10-14T02:26:40.965Z,91.50
2022-10-14T02:29:07.917Z,91.40
2022-10-14T02:31:38.350Z,91.40
2022-10-14T02:34:09.481Z,91.40
2022-10-14T02:36:38.711Z,91.40
2022-10-14T02:39:07.877Z,91.30
2022-10-14T02:41:38.754Z,91.30
2022-10-14T02:44:08.325Z,91.40
2022-10-14T02:46:35.797Z,91.50
2022-10-14T02:49:02.693Z,91.40
2022-10-14T02:51:29.469Z,91.40
2022-10-14T02:53:57.810Z,91.40
2022-10-14T02:56:26.529Z,91.40
2022-10-14T02:58:53.292Z,91.40
2022-10-14T03:01:22.246Z,91.40
2022-10-14T03:03:49.048Z,91.40
2022-10-14T03:06:17.171Z,91.60
2022-10-14T03:08:44.650Z,91.50
2022-10-14T03:11:11.690Z,91.50
2022-10-14T03:13:38.555Z,91.50
2022-10-14T03:16:05.675Z,91.50
2022-10-14T03:18:34.809Z,91.50
2022-10-14T03:21:09.118Z,91.50
2022-10-14T03:23:39.002Z,91.50
2022-10-14T03:26:06.680Z,91.40
2022-10-14T03:28:40.549Z,91.80
2022-10-14T03:31:16.829Z,91.40
2022-10-14T03:33:53.392Z,91.40
2022-10-14T03:36:20.868Z,91.50
2022-10-14T03:38:52.598Z,91.60
2022-10-14T03:41:34.468Z,91.60
2022-10-14T03:44:02.037Z,92.00
2022-10-14T03:46:29.177Z,91.70
2022-10-14T03:48:57.182Z,91.60
2022-10-14T03:51:24.317Z,91.70
2022-10-14T03:53:57.136Z,91.70
2022-10-14T03:56:28.135Z,91.90
2022-10-14T03:58:55.080Z,91.80
2022-10-14T04:01:23.739Z,91.70
2022-10-14T04:04:07.613Z,91.80
2022-10-14T04:06:35.577Z,91.80
2022-10-14T04:09:05.042Z,91.80
2022-10-14T04:11:36.514Z,91.90
2022-10-14T04:14:07.242Z,91.80
2022-10-14T04:16:40.070Z,91.80
2022-10-14T04:19:11.180Z,92.00
2022-10-14T04:21:39.973Z,91.90
2022-10-14T04:24:08.728Z,91.90
2022-10-14T04:26:46.273Z,91.80
2022-10-14T04:29:21.364Z,91.90
2022-10-14T04:31:54.736Z,91.80
2022-10-14T04:34:23.002Z,92.00
2022-10-14T04:36:50.040Z,91.80
2022-10-14T04:39:42.027Z,91.80
2022-10-14T04:42:09.396Z,91.70
2022-10-14T04:44:36.632Z,91.80
2022-10-14T04:47:04.246Z,91.80
2022-10-14T04:49:31.592Z,91.70
2022-10-14T04:52:12.112Z,91.80
2022-10-14T04:54:45.854Z,91.80
2022-10-14T04:57:12.668Z,91.80
2022-10-14T04:59:40.240Z,91.80
2022-10-14T05:02:19.741Z,91.80
2022-10-14T05:04:52.624Z,91.70
2022-10-14T05:07:20.068Z,91.70
2022-10-14T05:09:56.182Z,91.70
2022-10-14T05:12:33.101Z,91.70
2022-10-14T05:15:02.333Z,91.70
2022-10-14T05:17:37.714Z,91.70
2022-10-14T05:20:06.780Z,91.70
2022-10-14T05:22:35.608Z,91.80
2022-10-14T05:25:04.287Z,91.80
2022-10-14T05:27:31.174Z,91.90
2022-10-14T05:30:01.338Z,92.00
2022-10-14T05:32:28.660Z,92.00
2022-10-14T05:35:01.553Z,92.00
2022-10-14T05:37:34.826Z,91.90
2022-10-14T05:40:01.636Z,92.00
2022-10-14T05:42:30.178Z,92.00
2022-10-14T05:44:58.773Z,91.90
2022-10-14T05:47:27.699Z,92.00
2022-10-14T05:49:59.309Z,92.00
2022-10-14T05:52:26.345Z,91.90
2022-10-14T05:54:54.263Z,91.80
2022-10-14T05:57:25.001Z,91.80
2022-10-14T05:59:51.898Z,91.90
2022-10-14T06:02:19.121Z,91.90
2022-10-14T06:04:46.678Z,91.90
2022-10-14T06:07:13.623Z,91.90
2022-10-14T06:09:40.609Z,91.80
2022-10-14T06:12:09.814Z,91.90
2022-10-14T06:14:38.630Z,92.00
2022-10-14T06:17:06.336Z,91.90
2022-10-14T06:19:34.492Z,92.00
2022-10-14T06:22:01.401Z,92.00
2022-10-14T06:24:28.150Z,92.00
2022-10-14T06:26:54.890Z,91.80
2022-10-14T06:29:26.151Z,91.80
2022-10-14T06:31:53.000Z,91.70
2022-10-14T06:34:23.105Z,91.70
2022-10-14T06:36:49.893Z,91.60
2022-10-14T06:39:16.740Z,91.70
2022-10-14T06:41:43.784Z,91.60
2022-10-14T06:44:19.170Z,91.50
2022-10-14T06:46:45.945Z,91.50
2022-10-14T06:49:12.784Z,91.60
2022-10-14T06:51:40.532Z,91.60
2022-10-14T06:54:08.121Z,91.50
2022-10-14T06:56:35.050Z,91.50
2022-10-14T06:59:01.932Z,91.50
2022-10-14T07:01:28.781Z,91.40
2022-10-14T07:03:56.787Z,91.30
2022-10-14T07:06:24.149Z,91.50
2022-10-14T07:08:50.910Z,91.60
2022-10-14T07:11:17.678Z,91.50
2022-10-14T07:13:44.486Z,91.40
2022-10-14T07:16:11.213Z,91.40
2022-10-14T07:18:37.964Z,91.40
2022-10-14T07:21:05.670Z,91.20
2022-10-14T07:23:33.010Z,91.20
2022-10-14T07:26:00.731Z,91.10
2022-10-14T07:28:27.645Z,91.10
2022-10-14T07:30:58.543Z,90.90
2022-10-14T07:33:25.446Z,90.90
2022-10-14T07:35:52.274Z,90.80
2022-10-14T07:38:19.063Z,90.70
2022-10-14T07:40:45.836Z,90.80
2022-10-14T07:43:12.687Z,91.10
2022-10-14T07:45:44.113Z,90.30
2022-10-14T07:48:10.855Z,90.30
2022-10-14T07:50:37.660Z,90.30
2022-10-14T07:53:04.432Z,90.40
2022-10-14T07:55:31.841Z,90.40
2022-10-14T07:57:58.586Z,90.00
2022-10-14T08:00:27.881Z,90.20
2022-10-14T08:02:54.709Z,90.10
2022-10-14T08:05:38.651Z,89.80
2022-10-14T08:08:05.685Z,89.60
2022-10-14T08:10:32.575Z,89.20
2022-10-14T08:12:59.763Z,88.80
2022-10-14T08:15:29.636Z,88.70
2022-10-14T08:17:56.962Z,87.80
2022-10-14T08:20:23.858Z,87.50
2022-10-14T08:22:50.655Z,86.80
2022-10-14T08:25:17.487Z,86.80
2022-10-14T08:27:44.237Z,87.60
2022-10-14T08:30:11.725Z,87.40
2022-10-14T08:32:38.740Z,87.30
2022-10-14T08:35:05.973Z,86.50
2022-10-14T08:37:32.729Z,86.20
2022-10-14T08:39:59.519Z,86.50
2022-10-14T08:42:32.456Z,86.40
2022-10-14T08:45:09.827Z,86.00
2022-10-14T08:47:41.209Z,86.30
2022-10-14T08:50:23.486Z,86.90
2022-10-14T08:53:02.857Z,87.20
2022-10-14T08:55:46.328Z,87.20
2022-10-14T08:58:34.246Z,88.50
2022-10-14T09:01:16.176Z,89.00
2022-10-14T09:03:43.144Z,88.40
2022-10-14T09:06:24.475Z,88.50
2022-10-14T09:08:55.325Z,88.90
2022-10-14T09:11:25.182Z,90.00
2022-10-14T09:13:55.779Z,89.00
2022-10-14T09:16:27.523Z,89.10
2022-10-14T09:18:57.499Z,89.10
2022-10-14T09:21:53.271Z,88.80
2022-10-14T09:24:31.911Z,88.80
2022-10-14T09:27:06.116Z,87.90
2022-10-14T09:29:47.792Z,87.40
2022-10-14T09:32:40.321Z,87.00
2022-10-14T09:35:30.779Z,84.30
2022-10-14T09:37:57.623Z,83.70
2022-10-14T09:40:31.819Z,83.30
2022-10-14T09:43:10.935Z,84.20
2022-10-14T09:45:52.838Z,85.00
2022-10-14T09:48:33.637Z,85.20
2022-10-14T09:51:03.766Z,84.50
2022-10-14T09:53:31.772Z,85.20
2022-10-14T09:56:01.241Z,85.10
2022-10-14T09:58:53.569Z,85.50
2022-10-14T10:01:27.616Z,85.80
2022-10-14T10:03:55.890Z,86.00
2022-10-14T10:06:26.512Z,86.20
2022-10-14T10:08:53.219Z,86.00
2022-10-14T10:11:37.383Z,85.90
2022-10-14T10:14:20.844Z,85.90
2022-10-14T10:16:48.109Z,85.80
2022-10-14T10:19:28.642Z,85.50
2022-10-14T10:22:26.567Z,86.00
2022-10-14T10:25:03.436Z,84.90
2022-10-14T10:27:36.622Z,84.80
2022-10-14T10:30:27.405Z,84.90
2022-10-14T10:33:09.044Z,84.50
2022-10-14T10:36:13.303Z,83.60
2022-10-14T10:38:49.699Z,82.50
2022-10-14T10:41:26.623Z,81.50
2022-10-14T10:44:33.653Z,80.70
2022-10-14T10:47:06.494Z,80.00
2022-10-14T10:49:58.509Z,80.50
2022-10-14T10:53:15.036Z,79.60
2022-10-14T10:56:04.396Z,78.20
2022-10-14T10:59:02.096Z,77.50
2022-10-14T11:01:54.827Z,76.40
2022-10-14T11:04:45.250Z,73.20
2022-10-14T11:07:33.434Z,74.20
2022-10-14T11:10:24.325Z,74.60
2022-10-14T11:12:53.946Z,74.10
2022-10-14T11:15:39.582Z,74.50
2022-10-14T11:18:20.732Z,74.20
2022-10-14T11:21:05.798Z,71.90
2022-10-14T11:23:59.586Z,69.90
2022-10-14T11:26:52.257Z,71.20
2022-10-14T11:29:38.199Z,72.80
2022-10-14T11:32:18.362Z,72.60
2022-10-14T11:35:17.131Z,72.50
2022-10-14T11:38:02.805Z,73.50
2022-10-14T11:40:49.967Z,72.60
2022-10-14T11:43:26.474Z,72.80
2022-10-14T11:46:12.561Z,70.70
2022-10-14T11:48:48.020Z,70.00
2022-10-14T11:51:22.366Z,69.40
2022-10-14T11:54:23.179Z,69.60
2022-10-14T11:57:01.990Z,68.60
2022-10-14T11:59:36.656Z,70.00
2022-10-14T12:02:30.749Z,69.10
2022-10-14T12:05:09.871Z,69.40
2022-10-14T12:07:44.379Z,69.40
2022-10-14T12:10:33.641Z,69.70
2022-10-14T12:13:01.711Z,70.50
2022-10-14T12:18:01.625Z,71.20
2022-10-14T12:20:51.537Z,71.50
2022-10-14T12:23:38.105Z,72.10
2022-10-14T12:26:22.446Z,72.80
2022-10-14T12:28:52.863Z,73.00
2022-10-14T12:31:21.154Z,73.00
2022-10-14T12:34:15.908Z,72.30
2022-10-14T12:36:48.797Z,72.60
2022-10-14T12:39:18.577Z,70.90
2022-10-14T12:41:48.226Z,71.40
2022-10-14T12:44:18.837Z,70.90
2022-10-14T12:46:49.076Z,70.70
2022-10-14T12:49:24.744Z,69.90
2022-10-14T12:51:57.502Z,69.70
2022-10-14T12:54:26.903Z,69.80
2022-10-14T12:57:04.955Z,70.20
2022-10-14T12:59:38.292Z,71.30
2022-10-14T13:02:32.457Z,71.50
2022-10-14T13:05:08.551Z,71.70
2022-10-14T13:07:41.480Z,72.30
2022-10-14T13:10:48.551Z,71.70
2022-10-14T13:13:52.561Z,73.60
2022-10-14T13:16:25.541Z,74.30
2022-10-14T13:18:55.079Z,73.00
2022-10-14T13:21:37.118Z,73.20
2022-10-14T13:24:16.368Z,72.80
2022-10-14T13:26:55.480Z,73.40
2022-10-14T13:29:31.222Z,73.70
2022-10-14T13:32:31.348Z,73.60
2022-10-14T13:35:16.431Z,72.80
2022-10-14T13:37:56.062Z,73.10
2022-10-14T13:40:37.486Z,73.20
2022-10-14T13:43:42.276Z,71.90
2022-10-14T13:46:30.054Z,72.20
2022-10-14T13:48:59.917Z,71.40
2022-10-14T13:51:44.879Z,71.00
2022-10-14T13:54:33.055Z,70.50
2022-10-14T14:00:39.101Z,71.90
2022-10-14T14:02:54.525Z,71.70
2022-10-14T14:05:26.225Z,72.10
2022-10-14T14:11:15.143Z,72.30
2022-10-14T14:14:02.489Z,73.00
2022-10-14T14:16:41.575Z,73.40
2022-10-14T14:19:28.883Z,73.00
2022-10-14T14:22:17.702Z,73.50
2022-10-14T14:24:47.260Z,74.20
2022-10-14T14:27:17.907Z,73.70
2022-10-14T14:29:46.470Z,74.10
2022-10-14T14:32:22.772Z,73.90
2022-10-14T14:34:51.178Z,73.20
2022-10-14T14:37:53.237Z,73.60
2022-10-14T14:40:22.367Z,73.60
2022-10-14T14:42:59.298Z,73.70
2022-10-14T14:45:32.370Z,74.50
2022-10-14T14:48:03.865Z,74.60
2022-10-14T14:50:37.520Z,73.80
2022-10-14T14:53:10.274Z,73.30
2022-10-14T14:55:57.453Z,73.90
2022-10-14T14:58:37.414Z,74.70
2022-10-14T15:01:07.189Z,75.20
2022-10-14T15:04:13.618Z,75.20
2022-10-14T15:06:51.583Z,74.90
2022-10-14T15:09:30.232Z,74.30
2022-10-14T15:12:00.573Z,74.40
2022-10-14T15:14:34.756Z,73.70
2022-10-14T15:17:05.656Z,74.00
2022-10-14T15:19:38.433Z,74.60
2022-10-14T15:22:12.061Z,75.50
2022-10-14T15:24:58.630Z,76.30
2022-10-14T15:27:31.409Z,74.80
2022-10-14T15:30:22.467Z,75.30
2022-10-14T15:32:51.086Z,75.30
2022-10-14T15:35:20.295Z,76.00
2022-10-14T15:37:48.407Z,75.00
2022-10-14T15:40:16.521Z,75.70
2022-10-14T15:42:43.269Z,75.30
2022-10-14T15:45:10.241Z,75.50
2022-10-14T15:47:37.722Z,75.90
2022-10-14T15:50:08.573Z,75.70
2022-10-14T15:52:35.371Z,75.60
2022-10-14T15:55:02.133Z,75.90
2022-10-14T15:57:28.863Z,75.70
2022-10-14T15:59:55.629Z,75.70
2022-10-14T16:02:32.794Z,75.90
2022-10-14T16:05:19.789Z,76.70
2022-10-14T16:07:46.203Z,77.10
2022-10-14T16:10:14.053Z,76.80
2022-10-14T16:12:40.881Z,77.20
2022-10-14T16:15:42.490Z,77.90
2022-10-14T16:18:09.233Z,77.20
2022-10-14T16:20:36.033Z,77.90
2022-10-14T16:23:04.734Z,78.30
2022-10-14T16:25:50.256Z,78.50
2022-10-14T16:28:18.790Z,78.60
2022-10-14T16:30:50.262Z,78.80
2022-10-14T16:33:18.913Z,78.90
2022-10-14T16:35:54.715Z,78.60
2022-10-14T16:38:22.645Z,78.70
2022-10-14T16:40:57.067Z,78.60
2022-10-14T16:43:24.511Z,78.60
2022-10-14T16:45:51.685Z,79.00
2022-10-14T16:48:19.372Z,78.90
2022-10-14T16:50:51.070Z,79.00
2022-10-14T16:53:37.329Z,79.50
2022-10-14T16:56:24.792Z,79.80
2022-10-14T16:58:51.570Z,80.40
2022-10-14T17:01:18.843Z,80.50
2022-10-14T17:03:45.613Z,80.50
2022-10-14T17:06:12.367Z,80.90
2022-10-14T17:08:42.983Z,80.70
2022-10-14T17:11:11.260Z,80.90
2022-10-14T17:13:38.220Z,81.10
2022-10-14T17:16:06.335Z,81.30
2022-10-14T17:18:36.016Z,81.50
2022-10-14T17:21:08.918Z,81.60
2022-10-14T17:23:37.153Z,81.50
2022-10-14T17:26:05.422Z,81.80
2022-10-14T17:28:33.216Z,81.80
2022-10-14T17:31:01.416Z,81.90
2022-10-14T17:33:28.139Z,81.90
2022-10-14T17:36:00.288Z,82.10
2022-10-14T17:38:29.111Z,82.30
2022-10-14T17:41:07.134Z,82.30
2022-10-14T17:43:36.758Z,82.60
2022-10-14T17:46:13.269Z,82.70
2022-10-14T17:48:42.476Z,82.60
2022-10-14T17:51:11.355Z,82.60
2022-10-14T17:53:39.262Z,82.70
2022-10-14T17:56:12.022Z,82.80
2022-10-14T17:58:39.539Z,82.80
2022-10-14T18:01:11.095Z,83.00
2022-10-14T18:03:41.890Z,83.10
2022-10-14T18:06:13.861Z,83.30
2022-10-14T18:08:42.136Z,83.40
2022-10-14T18:11:10.998Z,83.50
2022-10-14T18:16:12.473Z,83.70
2022-10-14T18:18:40.415Z,83.90
2022-10-14T18:21:08.178Z,84.00
2022-10-14T18:23:39.075Z,84.00
2022-10-14T18:26:13.449Z,84.10
2022-10-14T18:28:44.996Z,84.20
2022-10-14T18:31:18.064Z,84.30
2022-10-14T18:33:45.537Z,84.10
2022-10-14T18:36:14.803Z,84.20
2022-10-14T18:38:41.820Z,84.30
2022-10-14T18:41:14.361Z,84.30
2022-10-14T18:43:41.674Z,84.40
2022-10-14T18:46:14.745Z,84.10
2022-10-14T18:48:47.093Z,84.30
2022-10-14T18:51:16.030Z,84.20
2022-10-14T18:53:45.047Z,84.10
2022-10-14T18:56:17.717Z,84.10
2022-10-14T18:58:49.682Z,84.00
2022-10-14T19:01:17.332Z,85.10
2022-10-14T19:03:44.717Z,84.40
2022-10-14T19:06:12.687Z,84.50
2022-10-14T19:08:41.564Z,84.60
2022-10-14T19:11:10.371Z,84.40
2022-10-14T19:13:39.173Z,84.70
2022-10-14T19:16:12.514Z,84.60
2022-10-14T19:18:39.276Z,84.60
2022-10-14T19:21:09.342Z,84.40
2022-10-14T19:23:37.596Z,84.50
2022-10-14T19:26:09.623Z,84.70
2022-10-14T19:28:36.702Z,84.80
2022-10-14T19:31:12.010Z,84.60
2022-10-14T19:33:40.642Z,85.60
2022-10-14T19:36:07.587Z,84.50
2022-10-14T19:38:36.322Z,84.40
2022-10-14T19:41:05.466Z,84.30
2022-10-14T19:43:32.490Z,84.30
2022-10-14T19:45:59.434Z,84.30
2022-10-14T19:48:26.464Z,84.30
2022-10-14T19:50:53.277Z,84.60
2022-10-14T19:53:20.090Z,84.60
2022-10-14T19:55:46.869Z,84.70
2022-10-14T19:58:13.665Z,84.60
2022-10-14T20:00:40.387Z,84.50
2022-10-14T20:03:07.172Z,84.90
2022-10-14T20:05:34.133Z,85.00
2022-10-14T20:08:02.623Z,85.30
2022-10-14T20:10:29.397Z,85.30
2022-10-14T20:12:56.191Z,85.50
2022-10-14T20:15:22.955Z,85.50
2022-10-14T20:17:49.738Z,85.60
2022-10-14T20:20:16.535Z,85.60
2022-10-14T20:22:43.541Z,85.70
2022-10-14T20:25:10.293Z,85.60
2022-10-14T20:27:37.089Z,85.80
2022-10-14T20:30:04.563Z,86.00
2022-10-14T20:32:31.309Z,86.10
2022-10-14T20:34:58.061Z,86.10
2022-10-14T20:37:28.032Z,86.20
2022-10-14T20:39:55.103Z,86.10
2022-10-14T20:42:21.848Z,86.20
2022-10-14T20:44:48.581Z,86.40
2022-10-14T20:47:15.354Z,86.10
2022-10-14T20:49:42.850Z,86.10
2022-10-14T20:52:10.002Z,86.10
2022-10-14T20:54:37.063Z,86.10
2022-10-14T20:57:03.875Z,86.10
2022-10-14T20:59:30.729Z,86.10
2022-10-14T21:01:57.563Z,85.90
2022-10-14T21:04:24.328Z,85.80
2022-10-14T21:06:51.194Z,85.70
2022-10-14T21:09:18.040Z,85.50
2022-10-14T21:11:45.088Z,85.50
2022-10-14T21:14:12.035Z,85.50
2022-10-14T21:16:42.119Z,85.30
2022-10-14T21:19:09.979Z,85.40
2022-10-14T21:21:42.582Z,85.50
2022-10-14T21:24:13.337Z,85.30
2022-10-14T21:26:40.380Z,85.30
2022-10-14T21:29:07.184Z,85.30
2022-10-14T21:31:33.953Z,85.10
2022-10-14T21:34:05.900Z,85.20
2022-10-14T21:36:35.322Z,85.30
2022-10-14T21:39:09.704Z,85.30
2022-10-14T21:41:37.256Z,85.20
2022-10-14T21:44:04.833Z,85.10
2022-10-14T21:46:31.939Z,85.20
2022-10-14T21:48:59.914Z,85.10
2022-10-14T21:51:28.833Z,85.10
2022-10-14T21:53:56.088Z,85.20
2022-10-14T21:56:23.443Z,85.20
2022-10-14T21:58:50.236Z,85.30
2022-10-14T22:01:21.787Z,85.30
2022-10-14T22:03:57.086Z,85.30
2022-10-14T22:06:24.712Z,85.30
2022-10-14T22:08:54.402Z,85.20
2022-10-14T22:11:25.084Z,85.10
2022-10-14T22:13:52.806Z,85.00
2022-10-14T22:16:20.177Z,85.30
2022-10-14T22:18:50.393Z,85.10
2022-10-14T22:21:19.472Z,85.40
2022-10-14T22:23:47.929Z,86.80
2022-10-14T22:26:17.300Z,87.50
2022-10-14T22:28:44.151Z,88.40
2022-10-14T22:31:16.582Z,88.50
2022-10-14T22:33:44.136Z,88.80
2022-10-14T22:36:12.968Z,88.50
2022-10-14T22:38:41.895Z,88.50
2022-10-14T22:41:10.292Z,88.50
2022-10-14T22:43:37.820Z,88.50
2022-10-14T22:46:13.014Z,88.50
2022-10-14T22:48:40.220Z,88.50
2022-10-14T22:51:12.497Z,88.30
2022-10-14T22:53:40.921Z,89.30
2022-10-14T22:56:09.836Z,88.20
2022-10-14T22:58:37.041Z,88.20
2022-10-14T23:01:07.284Z,88.00
2022-10-14T23:03:35.045Z,87.90
2022-10-14T23:06:03.885Z,87.90
2022-10-14T23:08:31.174Z,87.70
2022-10-14T23:11:02.108Z,87.60
2022-10-14T23:13:29.388Z,87.80
2022-10-14T23:15:57.952Z,87.60
2022-10-14T23:18:26.039Z,88.00
2022-10-14T23:20:53.324Z,88.40
2022-10-14T23:23:20.054Z,88.60
2022-10-14T23:25:46.841Z,88.90
2022-10-14T23:28:14.100Z,89.60
2022-10-14T23:30:40.844Z,90.10
2022-10-14T23:33:11.770Z,90.20
2022-10-14T23:35:39.046Z,90.30
2022-10-14T23:38:05.909Z,90.50
2022-10-14T23:40:33.242Z,90.50
2022-10-14T23:43:00.059Z,90.60
2022-10-14T23:45:26.841Z,90.60
2022-10-14T23:47:53.593Z,90.70
2022-10-14T23:50:20.487Z,90.70
2022-10-14T23:52:47.271Z,90.80
2022-10-14T23:55:14.270Z,90.80
2022-10-14T23:57:41.410Z,90.80
